This is the latest recevied weather packets stored in our database for station/object EA5BZ. If no packets are shown the sender has not sent any weather packets the latest 10 day(s).
| Time | Temp. | Humidity | Pressure | Rain* | Wind** | Luminosity | Snow |
|---|---|---|---|---|---|---|---|
| 1777609817 | 17.78° C | 89% | 1018.4 hPa | 0 mm | - | - | - |
| 1777609517 | 17.78° C | 90% | 1018.4 hPa | 0 mm | - | - | - |
| 1777608917 | 17.78° C | 90% | 1018.5 hPa | 0 mm | - | - | - |
| 1777605617 | 17.78° C | 89% | 1018.6 hPa | 0 mm | - | - | - |
| 1777605017 | 17.78° C | 89% | 1018.7 hPa | 0 mm | - | - | - |
| 1777599917 | 17.22° C | 89% | 1018.5 hPa | 0 mm | - | - | - |
| 1777599317 | 17.22° C | 89% | 1018.5 hPa | 0 mm | - | - | - |
| 1777598737 | 17.22° C | 89% | 1018.4 hPa | 0 mm | - | - | - |
| 1777598417 | 17.22° C | 89% | 1018.4 hPa | 0 mm | - | - | - |
| 1777591517 | 17.78° C | 87% | 1018.7 hPa | 0 mm | - | - | - |
| 1777590917 | 17.78° C | 87% | 1018.8 hPa | 0 mm | - | - | - |
| 1777590337 | 17.78° C | 87% | 1018.8 hPa | 0 mm | - | - | - |
| 1777588816 | 17.78° C | 87% | 1018.7 hPa | 0 mm | - | - | - |
| 1777586717 | 17.78° C | 88% | 1018.8 hPa | 0 mm | - | - | - |
| 1777582817 | 17.78° C | 87% | 1018.3 hPa | 0 mm | - | - | - |
| 1777582237 | 17.78° C | 87% | 1018.1 hPa | 0 mm | - | - | - |
| 1777578617 | 18.33° C | 86% | 1017.1 hPa | 0 mm | - | - | - |
| 1777577117 | 18.33° C | 85% | 1017 hPa | 0 mm | - | - | - |
| 1777575917 | 18.33° C | 84% | 1016.7 hPa | 0 mm | - | - | - |
| 1777572317 | 19.44° C | 80% | 1016.1 hPa | 0 mm | - | - | - |
| 1777571717 | 20° C | 79% | 1016.1 hPa | 0 mm | - | - | - |
| 1777569317 | 20° C | 77% | 1016 hPa | 0 mm | - | - | - |
| 1777568417 | 20° C | 76% | 1016 hPa | 0 mm | - | - | - |
| 1777566617 | 20° C | 76% | 1016 hPa | 0 mm | - | - | - |
| 1777560317 | 20.56° C | 73% | 1016.1 hPa | 0 mm | - | - | - |
* Rain latest hour (hover to see other rain measurements)
** Current wind speed in m/s (hover to see current wind gust speed)